Time;durP1;ratioP1;P1;durP2;ratioP2;P2;SDS_P1;SDS_P2;PMS_P1;PMS_P2;Temp;Humidity;BMP_temperature;BMP_pressure;BME280_temperature;BME280_humidity;BME280_pressure;Samples;Min_cycle;Max_cycle;Signal;HPM_P1;HPM_P2
2020/12/03 00:01:09;;;;;;;15.35;9.10;;;;;;;12.96;59.13;101010.13;5015465;28;20076;-55
2020/12/03 00:03:42;;;;;;;13.73;9.10;;;;;;;12.99;58.54;101007.75;5019702;28;20179;-55
2020/12/03 00:06:17;;;;;;;10.27;7.35;;;;;;;13.09;58.93;101012.44;5015202;28;20034;-53
2020/12/03 00:08:49;;;;;;;25.25;11.77;;;;;;;13.04;58.48;101005.13;5015545;28;20046;-51
2020/12/03 00:11:15;;;;;;;23.40;12.70;;;;;;;13.05;58.61;101012.13;5018319;28;20390;-54
2020/12/03 00:13:41;;;;;;;15.43;5.15;;;;;;;13.03;59.33;101002.69;5020593;28;20041;-52
2020/12/03 00:16:07;;;;;;;12.35;4.18;;;;;;;13.23;58.54;101012.91;5014283;28;20204;-53
2020/12/03 00:18:35;;;;;;;7.63;3.65;;;;;;;13.23;59.30;101012.91;5015427;28;20463;-53
2020/12/03 00:21:05;;;;;;;4.18;2.28;;;;;;;13.24;59.17;101014.53;5016380;28;20133;-54
2020/12/03 00:23:30;;;;;;;3.40;1.75;;;;;;;13.23;58.44;101016.41;5018181;28;20363;-54
2020/12/03 00:25:56;;;;;;;9.98;2.28;;;;;;;13.29;58.14;101011.91;5016490;28;20037;-51
2020/12/03 00:28:33;;;;;;;11.05;2.33;;;;;;;13.29;58.95;101022.69;5015310;28;20040;-52
2020/12/03 00:30:59;;;;;;;4.07;2.15;;;;;;;13.27;58.46;101007.81;5016479;28;20112;-52
2020/12/03 00:33:24;;;;;;;4.47;1.48;;;;;;;13.22;58.33;101009.41;5017308;28;20136;-51
2020/12/03 00:35:50;;;;;;;9.90;1.95;;;;;;;13.26;57.77;101000.84;5015896;28;20037;-52
2020/12/03 00:38:18;;;;;;;3.20;1.92;;;;;;;13.19;57.93;101001.00;5018063;28;20077;-52
2020/12/03 00:40:44;;;;;;;9.18;2.50;;;;;;;13.31;58.05;100999.03;5017914;28;20033;-49
2020/12/03 00:43:10;;;;;;;6.57;1.15;;;;;;;13.35;57.91;101002.03;5032756;28;20049;-49
2020/12/03 00:45:35;;;;;;;13.32;1.92;;;;;;;13.37;57.35;101003.41;5023417;28;20037;-51
2020/12/03 00:48:01;;;;;;;7.20;3.00;;;;;;;13.49;57.54;100995.19;5032704;28;20048;-54
2020/12/03 00:50:26;;;;;;;14.05;1.95;;;;;;;13.46;57.27;101001.06;5032690;28;20044;-53
2020/12/03 00:52:52;;;;;;;6.80;2.20;;;;;;;13.50;57.08;100999.53;5032592;28;20091;-52
2020/12/03 00:55:17;;;;;;;7.38;1.25;;;;;;;13.42;57.48;100998.06;5032509;28;20037;-55
2020/12/03 00:57:43;;;;;;;2.45;1.52;;;;;;;13.33;57.33;100986.13;5032341;28;20507;-50
2020/12/03 01:00:12;;;;;;;4.07;2.50;;;;;;;13.36;57.47;100976.75;5032460;28;20067;-48
2020/12/03 01:02:38;;;;;;;10.95;1.25;;;;;;;13.50;57.53;100988.75;5032544;28;20656;-50
2020/12/03 01:05:06;;;;;;;4.03;1.95;;;;;;;13.49;57.07;100989.81;5032336;28;20116;-50
2020/12/03 01:07:31;;;;;;;12.65;2.70;;;;;;;13.50;56.84;100987.91;5014664;28;20111;-55
2020/12/03 01:09:57;;;;;;;9.23;1.27;;;;;;;13.42;57.02;100990.00;5027377;28;20747;-54
2020/12/03 01:12:22;;;;;;;5.15;1.60;;;;;;;13.29;57.62;100986.84;5029942;28;20148;-50
2020/12/03 01:14:48;;;;;;;3.90;1.73;;;;;;;13.34;57.13;100971.63;5032003;28;20032;-52
2020/12/03 01:17:15;;;;;;;2.75;1.35;;;;;;;13.48;57.07;100985.50;5031901;28;20394;-53
2020/12/03 01:19:42;;;;;;;3.30;1.67;;;;;;;13.56;57.36;100976.94;5032271;28;20041;-50
2020/12/03 01:22:08;;;;;;;18.52;2.35;;;;;;;13.57;56.89;100978.59;5031440;28;20374;-53
2020/12/03 01:24:34;;;;;;;2.35;0.50;;;;;;;13.57;56.68;100978.59;5027421;28;20025;-53
2020/12/03 01:27:00;;;;;;;4.18;1.83;;;;;;;13.58;57.28;100972.13;5028663;28;20079;-50
2020/12/03 01:29:25;;;;;;;11.65;1.40;;;;;;;13.58;57.04;100972.13;5031565;28;20045;-51
2020/12/03 01:31:51;;;;;;;10.05;2.08;;;;;;;13.60;56.84;100966.47;5031695;28;20461;-50
2020/12/03 01:34:18;;;;;;;3.80;1.75;;;;;;;13.64;57.30;100970.31;5031915;28;20067;-53
2020/12/03 01:36:43;;;;;;;7.28;1.85;;;;;;;13.57;57.57;100970.50;5031784;28;20037;-52
2020/12/03 01:39:09;;;;;;;13.35;2.90;;;;;;;13.55;57.77;100967.25;5031796;28;20052;-51
2020/12/03 01:41:35;;;;;;;8.85;2.42;;;;;;;13.59;57.86;100970.25;5031802;28;20029;-52
2020/12/03 01:44:03;;;;;;;8.25;1.27;;;;;;;13.59;57.44;100962.97;5031796;28;20103;-55
2020/12/03 01:46:28;;;;;;;4.28;1.58;;;;;;;13.57;57.69;100962.44;5031381;28;20025;-49
2020/12/03 01:49:23;;;;;;;9.23;1.60;;;;;;;13.56;57.35;100963.47;5031771;28;20033;-54
2020/12/03 01:51:53;;;;;;;9.05;1.80;;;;;;;13.63;57.30;100962.47;5022471;28;20026;-52
2020/12/03 01:54:20;;;;;;;7.07;2.55;;;;;;;13.61;57.52;100966.22;5031658;28;20045;-56
2020/12/03 01:56:54;;;;;;;4.13;2.30;;;;;;;13.53;57.83;100973.94;5031460;28;20029;-55
2020/12/03 01:59:21;;;;;;;3.67;1.90;;;;;;;13.53;58.36;100971.25;5014799;28;20175;-50
2020/12/03 02:01:48;;;;;;;5.78;1.13;;;;;;;13.50;58.48;100985.22;5022099;28;20091;-54
2020/12/03 02:04:13;;;;;;;9.00;2.22;;;;;;;13.56;57.91;100974.25;5023273;28;20038;-52
2020/12/03 02:06:41;;;;;;;9.57;1.77;;;;;;;13.50;58.17;100975.28;5025154;28;20022;-53
2020/12/03 02:09:10;;;;;;;6.82;2.58;;;;;;;13.45;58.89;100977.91;5028552;28;20132;-53
2020/12/03 02:11:36;;;;;;;17.08;2.13;;;;;;;13.40;59.29;100977.88;5031292;28;20040;-52
2020/12/03 02:14:09;;;;;;;7.93;2.28;;;;;;;13.38;59.47;100980.00;5031316;28;20041;-49
2020/12/03 02:16:37;;;;;;;17.02;2.72;;;;;;;13.47;58.72;100981.16;5018132;28;20033;-52
2020/12/03 02:19:12;;;;;;;1.83;1.20;;;;;;;13.48;58.45;100969.34;5026029;28;20497;-49
2020/12/03 02:21:38;;;;;;;9.00;4.20;;;;;;;13.42;58.37;100962.25;5019285;28;20082;-50
2020/12/03 02:24:03;;;;;;;10.20;3.40;;;;;;;13.29;59.23;100971.53;5031354;28;20041;-52
2020/12/03 02:26:29;;;;;;;5.95;3.03;;;;;;;13.20;60.17;100973.00;5031177;28;20122;-53
2020/12/03 02:28:54;;;;;;;14.32;3.38;;;;;;;13.16;60.31;100964.63;5031068;28;20076;-50
2020/12/03 02:31:19;;;;;;;3.22;2.42;;;;;;;13.08;60.88;100967.78;5030678;28;20076;-53
2020/12/03 02:33:45;;;;;;;8.10;4.22;;;;;;;13.08;60.89;100959.69;5021765;28;20378;-51
2020/12/03 02:36:14;;;;;;;6.80;2.83;;;;;;;13.23;60.29;100956.34;5029510;28;20069;-53
2020/12/03 02:38:39;;;;;;;10.15;3.20;;;;;;;13.19;60.97;100958.75;5030946;28;20117;-54
2020/12/03 02:41:08;;;;;;;7.47;2.15;;;;;;;13.14;60.45;100958.69;5030884;28;20061;-54
2020/12/03 02:43:33;;;;;;;9.55;2.45;;;;;;;13.13;61.14;100954.38;5017722;28;20056;-49
2020/12/03 02:45:58;;;;;;;4.50;2.80;;;;;;;12.96;61.88;100957.13;5030631;28;20751;-55
2020/12/03 02:48:24;;;;;;;8.07;2.50;;;;;;;12.79;62.41;100953.66;5031068;28;20518;-53
2020/12/03 02:50:50;;;;;;;5.13;3.38;;;;;;;12.81;62.43;100952.34;5030864;28;20553;-53
2020/12/03 02:53:16;;;;;;;4.43;3.13;;;;;;;12.79;62.59;100962.53;5031131;28;20448;-56
2020/12/03 02:55:41;;;;;;;9.82;3.15;;;;;;;12.85;62.80;100958.06;5030884;28;20037;-51
2020/12/03 02:58:07;;;;;;;13.45;4.43;;;;;;;12.85;63.22;100963.44;5030673;28;20061;-53
2020/12/03 03:00:32;;;;;;;3.38;2.53;;;;;;;12.77;62.50;100963.88;5030581;28;20054;-54
2020/12/03 03:02:58;;;;;;;7.80;3.65;;;;;;;12.80;62.60;100971.44;5030732;28;20466;-53
2020/12/03 03:05:23;;;;;;;9.40;3.13;;;;;;;12.68;63.24;100966.16;5030481;28;20665;-53
2020/12/03 03:07:49;;;;;;;3.60;2.03;;;;;;;12.72;62.63;100961.09;5030460;28;20478;-51
2020/12/03 03:10:15;;;;;;;6.28;1.40;;;;;;;12.74;63.03;100967.84;5030459;28;20029;-54
2020/12/03 03:12:41;;;;;;;4.38;2.35;;;;;;;12.81;62.97;100967.66;5030579;28;20458;-55
2020/12/03 03:15:07;;;;;;;1.95;1.52;;;;;;;12.81;63.29;100962.28;5030579;28;20041;-54
2020/12/03 03:17:33;;;;;;;6.63;1.77;;;;;;;12.92;62.46;100968.63;5030431;28;20042;-53
2020/12/03 03:19:58;;;;;;;2.28;1.08;;;;;;;12.85;62.14;100969.63;5030626;28;20121;-49
2020/12/03 03:22:24;;;;;;;2.65;0.93;;;;;;;12.96;61.96;100970.56;5030608;28;20113;-53
2020/12/03 03:24:49;;;;;;;11.55;2.67;;;;;;;12.94;61.17;100970.00;5030622;28;20111;-57
2020/12/03 03:27:15;;;;;;;6.47;2.80;;;;;;;12.89;61.71;100966.44;5030322;28;20046;-52
2020/12/03 03:29:40;;;;;;;3.25;1.98;;;;;;;12.84;61.71;100959.09;5030350;28;20041;-54
2020/12/03 03:32:06;;;;;;;6.40;1.98;;;;;;;12.74;62.42;100965.16;5030725;28;20049;-53
2020/12/03 03:34:32;;;;;;;4.75;1.88;;;;;;;12.83;62.05;100973.63;5025738;28;20044;-51
2020/12/03 03:36:58;;;;;;;7.78;3.33;;;;;;;12.64;62.21;100973.06;5029199;28;20045;-51
2020/12/03 03:39:24;;;;;;;7.88;3.38;;;;;;;12.62;62.13;100972.53;5030407;28;20614;-51
2020/12/03 03:41:53;;;;;;;6.57;3.13;;;;;;;12.70;62.88;100972.09;5030329;28;20033;-53
2020/12/03 03:44:20;;;;;;;10.85;4.15;;;;;;;12.60;63.37;100967.38;5031060;28;20103;-53
2020/12/03 03:46:45;;;;;;;17.20;4.38;;;;;;;12.75;62.15;100968.69;5026580;28;20030;-52
2020/12/03 03:49:11;;;;;;;15.15;5.25;;;;;;;12.67;61.99;100970.75;5032017;28;20030;-51
2020/12/03 03:51:36;;;;;;;15.35;4.40;;;;;;;12.55;63.13;100969.19;5033823;28;20037;-49
2020/12/03 03:54:02;;;;;;;8.52;1.90;;;;;;;12.44;63.02;100969.03;5034030;28;20030;-52
2020/12/03 03:56:27;;;;;;;6.80;2.88;;;;;;;12.45;63.14;100957.22;5033521;28;20473;-54
2020/12/03 03:58:53;;;;;;;6.75;1.35;;;;;;;12.54;62.52;100946.06;5033805;28;20033;-53
2020/12/03 04:01:18;;;;;;;10.95;2.80;;;;;;;12.42;63.74;100944.28;5033329;28;20038;-54
2020/12/03 04:03:44;;;;;;;10.27;2.17;;;;;;;12.43;62.96;100951.28;5025481;28;20493;-53
2020/12/03 04:06:09;;;;;;;5.53;1.90;;;;;;;12.31;63.71;100950.56;5033498;28;20044;-55
2020/12/03 04:08:35;;;;;;;3.17;1.50;;;;;;;12.42;63.65;100955.03;5033441;28;20081;-52
2020/12/03 04:11:00;;;;;;;7.35;1.70;;;;;;;12.34;64.32;100957.31;5032990;28;20441;-54
2020/12/03 04:13:26;;;;;;;2.00;1.10;;;;;;;12.37;64.33;100946.06;5032914;28;20410;-54
2020/12/03 04:15:52;;;;;;;3.10;1.13;;;;;;;12.45;63.65;100953.72;5022653;28;20068;-49
2020/12/03 04:18:25;;;;;;;2.00;1.13;;;;;;;12.43;63.65;100955.81;5033331;28;20087;-55
2020/12/03 04:20:52;;;;;;;1.65;1.00;;;;;;;12.42;63.68;100956.91;5029199;28;20088;-54
2020/12/03 04:23:17;;;;;;;4.47;2.15;;;;;;;12.52;63.30;100950.84;5032486;28;20033;-54
2020/12/03 04:25:43;;;;;;;5.82;1.55;;;;;;;12.60;62.93;100953.13;5033317;28;20041;-55
2020/12/03 04:28:08;;;;;;;3.25;1.77;;;;;;;12.55;63.86;100945.81;5032598;28;20029;-52
2020/12/03 04:30:34;;;;;;;2.53;1.67;;;;;;;12.59;63.23;100944.25;5033304;28;20462;-55
2020/12/03 04:32:59;;;;;;;2.35;1.77;;;;;;;12.67;62.57;100946.53;5033011;28;20442;-53
2020/12/03 04:35:24;;;;;;;3.95;1.55;;;;;;;12.62;62.71;100941.06;5029551;28;20516;-52
2020/12/03 04:37:50;;;;;;;9.20;1.55;;;;;;;12.60;62.29;100937.00;5027308;28;20478;-52
2020/12/03 04:40:25;;;;;;;2.85;0.98;;;;;;;12.72;61.21;100942.25;5030514;28;20025;-54
2020/12/03 04:42:51;;;;;;;2.17;0.88;;;;;;;12.84;60.37;100937.59;5031016;28;20053;-56
2020/12/03 04:45:23;;;;;;;3.47;1.05;;;;;;;12.83;60.56;100944.84;5023035;28;20033;-53
2020/12/03 04:48:33;;;;;;;10.27;3.10;;;;;;;12.74;61.64;100950.91;5023590;28;20045;-53
2020/12/03 04:51:17;;;;;;;2.47;1.33;;;;;;;12.66;61.61;100950.25;4994623;28;20111;-53
2020/12/03 04:53:50;;;;;;;10.73;2.08;;;;;;;12.71;61.11;100943.31;5022091;28;20033;-49
2020/12/03 04:57:08;;;;;;;3.80;1.67;;;;;;;12.75;60.35;100944.47;5031759;28;20033;-53
2020/12/03 04:59:50;;;;;;;9.38;2.70;;;;;;;12.84;60.89;100943.78;5008056;28;20080;-52
2020/12/03 05:02:18;;;;;;;;;;;;;;;12.88;60.15;100951.34;5032792;28;20033;-54
2020/12/03 05:05:02;;;;;;;4.82;1.48;;;;;;;12.92;60.52;100941.72;5032634;28;19927;-53
2020/12/03 05:07:29;;;;;;;5.28;1.10;;;;;;;12.93;59.69;100936.06;5031092;28;20128;-55
2020/12/03 05:10:14;;;;;;;2.88;1.60;;;;;;;12.86;59.56;100933.56;5032238;28;20025;-52
2020/12/03 05:12:43;;;;;;;3.60;1.23;;;;;;;12.90;59.17;100916.94;5020777;28;20035;-53
2020/12/03 05:15:25;;;;;;;8.30;1.48;;;;;;;12.93;58.91;100917.25;5032146;28;20053;-50
2020/12/03 05:18:09;;;;;;;;;;;;;;;12.85;58.65;100917.69;5032710;28;20271;-51
2020/12/03 05:20:37;;;;;;;2.80;1.48;;;;;;;12.86;58.63;100916.63;5031903;28;20281;-49
2020/12/03 05:23:13;;;;;;;3.00;1.25;;;;;;;12.90;58.93;100908.84;5032248;28;20075;-50
2020/12/03 05:25:39;;;;;;;2.08;0.90;;;;;;;12.72;58.81;100897.34;5020729;28;20033;-52
2020/12/03 05:28:32;;;;;;;7.15;1.45;;;;;;;12.80;59.26;100894.22;5031912;28;20114;-52
2020/12/03 05:31:07;;;;;;;11.13;1.52;;;;;;;12.63;60.28;100891.56;5025373;28;20069;-52
2020/12/03 05:33:34;;;;;;;7.43;2.30;;;;;;;12.61;60.83;100890.22;5018624;28;20406;-49
2020/12/03 05:35:59;;;;;;;1.80;0.80;;;;;;;12.48;61.41;100888.69;5031944;28;20079;-52
2020/12/03 05:38:25;;;;;;;9.57;1.88;;;;;;;12.57;60.88;100876.44;5032053;28;20041;-51
2020/12/03 05:41:05;;;;;;;8.43;1.67;;;;;;;12.56;60.57;100887.44;5030019;28;20040;-52
2020/12/03 05:43:32;;;;;;;2.97;2.13;;;;;;;12.42;61.79;100887.00;5025507;28;20393;-55
2020/12/03 05:46:01;;;;;;;2.22;2.03;;;;;;;12.46;61.54;100894.31;5031806;28;20480;-54
2020/12/03 05:48:26;;;;;;;9.02;2.35;;;;;;;12.37;62.23;100886.91;5028852;28;20034;-53
2020/12/03 05:50:54;;;;;;;3.67;1.83;;;;;;;12.38;62.03;100892.06;5023059;28;20143;-50
2020/12/03 05:53:25;;;;;;;2.53;1.48;;;;;;;12.45;62.06;100887.31;5029619;28;20041;-53
2020/12/03 05:55:52;;;;;;;6.22;1.42;;;;;;;12.41;61.44;100893.41;5031629;28;20037;-54
2020/12/03 05:58:27;;;;;;;11.75;2.58;;;;;;;12.50;61.61;100891.94;5029097;28;20046;-54
2020/12/03 06:01:05;;;;;;;7.25;1.63;;;;;;;12.53;61.17;100890.63;5024072;28;20080;-51
2020/12/03 06:03:48;;;;;;;6.88;1.90;;;;;;;12.60;60.72;100888.56;5023387;28;20053;-54
2020/12/03 06:06:35;;;;;;;6.30;1.88;;;;;;;12.53;61.56;100902.19;5031397;28;20061;-52
2020/12/03 06:09:25;;;;;;;10.32;1.90;;;;;;;12.49;61.16;100909.13;5020224;28;20061;-55
2020/12/03 06:12:16;;;;;;;3.17;1.98;;;;;;;12.52;61.62;100897.06;5022423;28;20389;-51
2020/12/03 06:15:02;;;;;;;5.35;2.05;;;;;;;12.55;61.55;100894.72;5023459;28;20045;-53
2020/12/03 06:17:46;;;;;;;3.42;2.80;;;;;;;12.44;61.49;100890.25;5030317;28;20041;-51
2020/12/03 06:20:45;;;;;;;5.85;2.67;;;;;;;12.50;62.14;100894.66;5031180;28;20033;-52
2020/12/03 06:23:20;;;;;;;5.13;2.33;;;;;;;12.46;61.67;100891.63;5031048;28;20041;-49
2020/12/03 06:25:57;;;;;;;12.65;7.07;;;;;;;12.49;61.32;100896.50;5031313;28;20029;-52
2020/12/03 06:28:45;;;;;;;8.10;1.88;;;;;;;12.46;61.74;100905.09;5028529;28;20168;-54
2020/12/03 06:31:25;;;;;;;3.60;1.23;;;;;;;12.45;61.85;100903.44;5030963;28;20037;-53
2020/12/03 06:34:03;;;;;;;7.47;1.98;;;;;;;12.36;62.73;100896.88;5031129;28;20053;-47
2020/12/03 06:36:41;;;;;;;5.32;1.00;;;;;;;12.29;62.63;100907.00;5023075;28;20544;-51
2020/12/03 06:39:30;;;;;;;12.25;1.45;;;;;;;12.24;62.82;100904.22;5009461;28;20045;-49
2020/12/03 06:42:29;;;;;;;5.18;1.70;;;;;;;12.10;62.89;100904.53;5011403;28;20121;-47
2020/12/03 06:45:03;;;;;;;9.57;2.05;;;;;;;12.09;62.83;100912.84;5014970;28;20042;-50
2020/12/03 06:47:40;;;;;;;14.93;5.00;;;;;;;12.22;62.12;100917.91;5026708;28;20041;-52
2020/12/03 06:50:38;;;;;;;15.57;4.32;;;;;;;12.36;62.47;100913.00;5023740;28;20114;-48
2020/12/03 06:53:28;;;;;;;7.75;3.65;;;;;;;12.25;62.84;100932.72;5022486;28;20065;-51
2020/12/03 06:56:15;;;;;;;11.97;3.57;;;;;;;12.33;62.60;100928.81;5021841;28;20033;-47
2020/12/03 06:59:25;;;;;;;5.50;2.53;;;;;;;12.47;61.61;100925.53;5019033;28;20156;-49
2020/12/03 07:02:21;;;;;;;12.25;3.72;;;;;;;12.46;61.60;100923.91;5004992;28;20799;-56
2020/12/03 07:05:20;;;;;;;15.90;4.13;;;;;;;12.58;61.43;100920.28;5014292;28;20034;-57
2020/12/03 07:08:04;;;;;;;13.70;3.20;;;;;;;12.42;62.37;100924.63;5010607;28;20065;-52
2020/12/03 07:10:51;;;;;;;6.03;1.75;;;;;;;12.44;61.83;100926.00;5016143;28;20037;-50
2020/12/03 07:13:54;;;;;;;3.78;1.58;;;;;;;12.32;62.43;100922.59;5023228;28;20045;-50
2020/12/03 07:16:22;;;;;;;2.70;1.25;;;;;;;12.33;62.61;100923.44;5012405;28;20061;-49
2020/12/03 07:19:12;;;;;;;5.90;1.70;;;;;;;12.35;61.83;100924.00;5022702;28;20509;-52
2020/12/03 07:22:16;;;;;;;19.58;4.55;;;;;;;12.34;62.53;100917.81;5026848;28;20052;-53
2020/12/03 07:24:46;;;;;;;13.82;5.32;;;;;;;12.33;62.64;100923.44;4986624;28;20057;-50
2020/12/03 07:27:28;;;;;;;9.70;5.78;;;;;;;12.24;62.97;100933.78;5022983;28;20062;-48
2020/12/03 07:30:06;;;;;;;2.97;2.17;;;;;;;12.25;62.63;100927.34;5031104;28;20106;-50
2020/12/03 07:32:34;;;;;;;3.72;2.55;;;;;;;12.24;62.52;100929.22;5013231;28;20049;-49
2020/12/03 07:35:20;;;;;;;10.93;6.45;;;;;;;12.20;63.08;100936.16;5022137;28;20749;-47
2020/12/03 07:38:11;;;;;;;12.75;4.93;;;;;;;12.31;62.98;100931.75;5017763;28;20045;-55
2020/12/03 07:40:38;;;;;;;2.72;1.38;;;;;;;13.41;64.86;100936.38;5018619;28;20450;-40
2020/12/03 07:43:13;;;;;;;6.07;2.70;;;;;;;14.11;63.58;100940.00;5031001;28;20049;-40
2020/12/03 07:45:46;;;;;;;5.47;1.73;;;;;;;14.41;62.08;100929.66;5018715;28;20485;-40
2020/12/03 07:48:24;;;;;;;5.15;2.45;;;;;;;14.59;61.71;100923.09;5030865;28;20371;-41
2020/12/03 07:51:07;;;;;;;7.72;3.85;;;;;;;14.83;61.18;100931.56;5025147;28;20437;-40
2020/12/03 07:53:34;;;;;;;6.80;3.63;;;;;;;14.90;60.80;100924.84;5028948;28;20042;-40
2020/12/03 07:56:26;;;;;;;17.02;11.93;;;;;;;14.12;59.83;100927.31;5022045;28;20041;-48
2020/12/03 07:58:52;;;;;;;24.67;15.40;;;;;;;13.43;60.83;100926.19;5021177;28;20871;-54
2020/12/03 08:01:20;;;;;;;22.67;14.50;;;;;;;13.05;61.78;100933.28;5027211;28;20740;-48
2020/12/03 08:03:50;;;;;;;19.33;11.77;;;;;;;12.81;61.90;100933.50;5014670;28;20042;-50
2020/12/03 08:06:22;;;;;;;14.15;8.68;;;;;;;12.77;62.10;100935.06;5016011;28;20049;-52
2020/12/03 08:09:21;;;;;;;14.77;11.15;;;;;;;12.85;61.53;100934.66;5010071;28;20526;-48
2020/12/03 08:12:05;;;;;;;17.40;10.35;;;;;;;12.85;61.28;100945.41;5002107;28;20050;-54
2020/12/03 08:14:44;;;;;;;16.20;10.85;;;;;;;12.83;61.62;100941.31;5011394;28;20429;-51
2020/12/03 08:17:22;;;;;;;16.48;9.82;;;;;;;12.83;61.50;100938.63;5013095;28;20041;-51
2020/12/03 08:20:10;;;;;;;13.88;9.07;;;;;;;12.83;61.25;100944.00;5008902;28;20414;-50
2020/12/03 08:22:42;;;;;;;21.30;10.45;;;;;;;12.90;61.58;100941.16;5011758;28;20045;-52
2020/12/03 08:25:29;;;;;;;34.40;14.63;;;;;;;12.66;62.44;100927.94;5010803;28;20108;-52
2020/12/03 08:28:00;;;;;;;22.77;16.00;;;;;;;12.79;61.63;100930.25;5017934;28;20045;-54
2020/12/03 08:30:38;;;;;;;28.10;22.58;;;;;;;12.88;61.75;100930.63;5026394;28;20609;-54
2020/12/03 08:33:17;;;;;;;43.65;23.70;;;;;;;12.87;61.93;100934.41;5028263;28;20132;-53
2020/12/03 08:35:51;;;;;;;21.52;11.60;;;;;;;12.91;62.00;100930.13;5019485;28;20041;-53
2020/12/03 08:38:27;;;;;;;26.80;10.85;;;;;;;12.90;62.19;100930.38;5029987;28;20064;-52
2020/12/03 08:40:55;;;;;;;31.15;17.55;;;;;;;12.90;62.38;100927.69;5026159;28;20494;-52
2020/12/03 08:43:21;;;;;;;22.85;17.33;;;;;;;12.90;62.86;100922.31;5029357;28;20123;-47
2020/12/03 08:46:00;;;;;;;30.75;15.23;;;;;;;12.93;62.77;100937.97;5029610;28;20087;-51
2020/12/03 08:48:29;;;;;;;22.75;15.50;;;;;;;12.95;62.89;100930.44;5028398;28;20504;-47
2020/12/03 08:50:59;;;;;;;33.38;15.23;;;;;;;12.95;62.87;100927.75;5029792;28;20030;-48
2020/12/03 08:53:27;;;;;;;21.92;14.13;;;;;;;12.97;62.40;100929.16;5019938;28;20045;-50
2020/12/03 08:55:55;;;;;;;20.60;10.68;;;;;;;12.94;62.41;100926.94;5029685;28;20211;-48
2020/12/03 08:58:23;;;;;;;21.08;10.50;;;;;;;12.84;63.80;100922.25;5029314;28;20041;-51
2020/12/03 09:00:52;;;;;;;15.20;11.88;;;;;;;12.90;63.51;100914.22;5029364;28;20532;-49
2020/12/03 09:03:21;;;;;;;19.25;13.63;;;;;;;12.90;63.09;100919.63;5061365;28;20041;-53
2020/12/03 09:05:49;;;;;;;10.88;8.00;;;;;;;12.70;63.40;100921.00;5020781;28;20037;-47
2020/12/03 09:08:20;;;;;;;13.02;8.02;;;;;;;12.68;63.71;100926.63;5029266;28;20065;-48
2020/12/03 09:10:49;;;;;;;16.57;8.27;;;;;;;12.79;63.24;100932.94;5029020;28;20033;-50
2020/12/03 09:13:17;;;;;;;17.05;5.80;;;;;;;12.87;63.05;100929.03;5029169;28;20281;-49
2020/12/03 09:15:44;;;;;;;14.48;4.95;;;;;;;12.87;62.37;100920.94;5025165;28;20033;-52
2020/12/03 09:18:10;;;;;;;10.23;5.65;;;;;;;12.80;62.65;100913.06;5029330;28;20042;-51
2020/12/03 09:20:42;;;;;;;16.77;8.48;;;;;;;12.98;62.83;100919.19;5029024;28;20037;-48
2020/12/03 09:23:31;;;;;;;23.23;9.82;;;;;;;13.09;62.84;100909.34;5029115;28;20047;-50
2020/12/03 09:25:57;;;;;;;21.13;15.40;;;;;;;13.17;62.33;100906.22;5023785;28;20034;-50
2020/12/03 09:28:22;;;;;;;14.70;8.48;;;;;;;13.25;61.95;100911.13;5028930;28;20076;-51
2020/12/03 09:30:49;;;;;;;17.67;8.27;;;;;;;13.29;61.79;100911.44;5028689;28;20037;-49
2020/12/03 09:33:20;;;;;;;9.15;5.75;;;;;;;13.47;62.02;100907.63;5027447;28;20467;-53
2020/12/03 09:35:47;;;;;;;16.33;8.00;;;;;;;13.58;61.13;100909.34;5027680;28;20040;-51
2020/12/03 09:38:15;;;;;;;10.30;5.63;;;;;;;13.43;60.48;100907.34;5028731;28;20049;-49
2020/12/03 09:40:46;;;;;;;6.90;5.28;;;;;;;13.67;59.63;100913.19;5028928;28;20037;-52
2020/12/03 09:43:14;;;;;;;13.70;6.87;;;;;;;13.70;59.55;100910.00;5028647;28;20056;-49
2020/12/03 09:45:42;;;;;;;31.48;22.83;;;;;;;13.83;59.68;100907.94;5028323;28;20038;-48
2020/12/03 09:48:12;;;;;;;12.40;7.03;;;;;;;13.89;58.38;100904.25;5028594;28;20064;-52
2020/12/03 09:50:46;;;;;;;16.98;6.10;;;;;;;13.79;59.11;100903.06;5028518;28;20040;-47
2020/12/03 09:53:21;;;;;;;14.48;5.97;;;;;;;13.78;59.36;100903.34;5015597;28;20092;-52
2020/12/03 09:55:48;;;;;;;24.08;9.73;;;;;;;13.85;59.20;100903.13;5010407;28;20410;-49
2020/12/03 09:58:20;;;;;;;10.98;4.88;;;;;;;14.10;57.39;100897.13;5013473;28;20515;-49
2020/12/03 10:00:50;;;;;;;4.72;3.72;;;;;;;14.57;54.97;100893.63;5012221;28;20513;-53
2020/12/03 10:03:48;;;;;;;5.53;3.72;;;;;;;14.71;53.57;100896.69;5014879;28;20521;-50
2020/12/03 10:06:18;;;;;;;4.93;2.65;;;;;;;14.70;54.78;100898.56;5007415;28;20073;-46
2020/12/03 10:08:50;;;;;;;4.40;2.67;;;;;;;14.94;52.41;100890.84;5005787;28;20056;-45
2020/12/03 10:11:15;;;;;;;;;;;;;;;14.84;53.19;100887.31;5022267;28;20350;-47
2020/12/03 10:14:12;;;;;;;1.90;1.42;;;;;;;14.48;53.15;100892.47;5027964;28;19925;-46
2020/12/03 10:16:43;;;;;;;3.55;2.08;;;;;;;14.74;52.76;100880.78;5018255;28;20109;-51
2020/12/03 10:19:10;;;;;;;7.00;3.10;;;;;;;15.10;51.48;100874.69;5016188;28;20069;-51
2020/12/03 10:21:49;;;;;;;13.45;3.33;;;;;;;15.25;51.67;100874.75;5010086;28;20041;-51
2020/12/03 10:24:21;;;;;;;8.15;3.38;;;;;;;15.51;51.07;100874.75;5009750;28;20104;-49
2020/12/03 10:27:12;;;;;;;17.58;3.50;;;;;;;15.41;51.67;100866.63;5010059;28;20029;-49
2020/12/03 10:29:45;;;;;;;5.15;2.22;;;;;;;15.94;50.28;100861.81;5008501;28;20475;-49
2020/12/03 10:32:13;;;;;;;42.40;38.38;;;;;;;16.39;49.28;100859.28;5011831;28;20048;-50
2020/12/03 10:34:44;;;;;;;8.68;2.95;;;;;;;16.67;48.55;100841.59;5010295;28;20534;-46
2020/12/03 10:37:25;;;;;;;5.35;2.08;;;;;;;17.11;45.92;100838.16;5018411;28;20037;-46
2020/12/03 10:40:03;;;;;;;3.55;1.63;;;;;;;17.26;45.48;100833.72;5027688;28;20056;-47
2020/12/03 10:42:37;;;;;;;4.10;2.03;;;;;;;17.26;44.68;100847.25;5020872;28;20048;-47
2020/12/03 10:45:08;;;;;;;4.47;1.50;;;;;;;17.24;45.95;100828.56;5023729;28;20040;-51
2020/12/03 10:47:55;;;;;;;3.65;1.60;;;;;;;17.18;44.32;100824.28;5018269;28;20060;-48
2020/12/03 10:50:40;;;;;;;6.20;2.08;;;;;;;17.39;45.03;100819.50;5027666;28;20049;-50
2020/12/03 10:53:06;;;;;;;9.57;5.88;;;;;;;17.79;43.74;100814.03;5025023;28;20422;-50
2020/12/03 10:55:31;;;;;;;9.32;6.90;;;;;;;18.04;43.67;100811.09;5026883;28;20124;-51
2020/12/03 10:58:01;;;;;;;8.43;3.90;;;;;;;18.45;42.01;100809.81;5020924;28;20037;-46
2020/12/03 11:00:28;;;;;;;8.25;4.47;;;;;;;18.42;41.68;100804.97;5029460;28;20034;-49
2020/12/03 11:03:00;;;;;;;9.10;4.10;;;;;;;18.11;42.37;100795.28;5039959;28;20094;-47
2020/12/03 11:05:27;;;;;;;5.20;2.58;;;;;;;18.04;42.30;100781.25;5028237;28;20053;-46
2020/12/03 11:07:54;;;;;;;4.97;2.45;;;;;;;18.11;41.07;100781.72;5021279;28;20060;-47
2020/12/03 11:10:21;;;;;;;5.00;2.58;;;;;;;18.09;40.37;100769.53;5028952;28;20041;-48
2020/12/03 11:12:52;;;;;;;4.72;2.00;;;;;;;18.70;40.46;100773.38;5025829;28;20116;-51
2020/12/03 11:15:21;;;;;;;8.73;1.00;;;;;;;18.74;38.20;100768.16;5031398;28;20061;-49
2020/12/03 11:18:09;;;;;;;5.45;2.15;;;;;;;18.25;41.58;100764.72;5031105;28;20729;-51
2020/12/03 11:20:38;;;;;;;2.05;1.10;;;;;;;18.47;39.13;100759.56;5017152;28;20037;-48
2020/12/03 11:23:12;;;;;;;3.67;1.65;;;;;;;18.52;39.69;100742.41;5031487;28;20092;-47
2020/12/03 11:25:38;;;;;;;4.45;1.50;;;;;;;18.56;37.48;100739.91;5019252;28;20041;-49
2020/12/03 11:28:26;;;;;;;2.97;1.55;;;;;;;18.62;38.64;100725.97;5025391;28;20061;-47
2020/12/03 11:31:02;;;;;;;2.28;0.93;;;;;;;18.27;37.51;100725.34;5022541;28;20033;-47
2020/12/03 11:33:33;;;;;;;3.22;2.28;;;;;;;17.29;40.13;100724.78;5028446;28;20072;-48
2020/12/03 11:36:09;;;;;;;9.00;4.38;;;;;;;17.44;41.31;100721.91;5031299;28;20033;-45
2020/12/03 11:38:35;;;;;;;8.10;4.95;;;;;;;17.79;42.06;100721.84;5018238;28;20088;-49
2020/12/03 11:41:09;;;;;;;2.03;1.05;;;;;;;18.08;39.16;100710.94;5030131;28;20371;-49
2020/12/03 11:49:08;;;;;;;3.22;1.38;;;;;;;17.21;42.47;100704.50;5004592;28;20069;-49
2020/12/03 11:51:37;;;;;;;8.88;4.63;;;;;;;17.31;43.89;100693.56;5000913;28;20030;-49